Time;durP1;ratioP1;P1;durP2;ratioP2;P2;SDS_P1;SDS_P2;PMS_P1;PMS_P2;Temp;Humidity;BMP_temperature;BMP_pressure;BME280_temperature;BME280_humidity;BME280_pressure;Samples;Min_cycle;Max_cycle;Signal;HPM_P1;HPM_P2
2022/03/29 00:01:52;;;;;;;13.27;10.40;;;;;;;8.32;100.00;98168.44;10398896;28;20104;-59
2022/03/29 00:06:57;;;;;;;14.05;11.07;;;;;;;8.21;100.00;98165.16;10407370;28;20120;-60
2022/03/29 00:12:00;;;;;;;15.27;11.95;;;;;;;8.17;100.00;98164.63;10411678;28;20354;-60
2022/03/29 00:17:03;;;;;;;15.25;11.18;;;;;;;8.04;100.00;98159.59;10410009;28;20056;-60
2022/03/29 00:22:07;;;;;;;14.23;10.45;;;;;;;7.91;100.00;98157.31;10410816;28;20594;-60
2022/03/29 00:27:11;;;;;;;15.75;12.10;;;;;;;7.82;100.00;98155.53;10412945;28;20111;-60
2022/03/29 00:32:14;;;;;;;13.15;11.50;;;;;;;7.76;100.00;98151.59;10411224;28;20115;-60
2022/03/29 00:37:18;;;;;;;15.70;12.32;;;;;;;7.79;100.00;98150.47;10412834;28;20552;-59
2022/03/29 00:42:22;;;;;;;14.32;11.77;;;;;;;7.76;100.00;98148.06;10412987;28;20084;-59
2022/03/29 00:47:25;;;;;;;13.30;11.65;;;;;;;7.74;100.00;98144.69;10412259;28;20555;-56
2022/03/29 00:52:29;;;;;;;15.15;12.15;;;;;;;7.68;100.00;98135.41;10408847;28;20121;-57
2022/03/29 00:57:34;;;;;;;14.63;12.75;;;;;;;7.63;100.00;98132.34;10411453;28;20402;-55
2022/03/29 01:02:37;;;;;;;15.70;12.80;;;;;;;7.57;100.00;98120.38;10410426;28;20466;-57
2022/03/29 01:07:41;;;;;;;16.45;12.85;;;;;;;7.51;100.00;98123.66;10411971;28;20045;-57
2022/03/29 01:12:44;;;;;;;14.45;12.35;;;;;;;7.43;100.00;98111.00;10411176;28;20075;-58
2022/03/29 01:17:48;;;;;;;14.30;12.80;;;;;;;7.37;100.00;98108.91;10389350;28;20580;-60
2022/03/29 01:22:53;;;;;;;15.00;13.40;;;;;;;7.22;100.00;98106.72;10401506;28;20091;-56
2022/03/29 01:27:56;;;;;;;15.73;13.48;;;;;;;7.14;100.00;98097.72;10404174;28;20045;-57
2022/03/29 01:33:01;;;;;;;17.48;13.80;;;;;;;7.02;100.00;98100.59;10404247;28;20053;-60
2022/03/29 01:38:05;;;;;;;16.38;14.32;;;;;;;6.92;100.00;98103.31;10404525;28;20136;-56
2022/03/29 01:43:08;;;;;;;17.63;14.25;;;;;;;6.82;100.00;98093.63;10402584;28;20521;-59
2022/03/29 01:48:12;;;;;;;17.73;15.43;;;;;;;6.78;100.00;98088.53;10404734;28;20077;-59
2022/03/29 01:53:24;;;;;;;19.65;15.48;;;;;;;6.78;100.00;98085.03;10400595;28;20412;-58
2022/03/29 01:58:29;;;;;;;17.35;15.25;;;;;;;6.73;100.00;98092.66;10404071;28;20501;-60
2022/03/29 02:03:32;;;;;;;17.98;15.20;;;;;;;6.65;100.00;98079.97;10401048;28;20065;-58
2022/03/29 02:08:36;;;;;;;21.23;16.90;;;;;;;6.59;100.00;98068.03;10384674;28;20053;-58
2022/03/29 02:13:40;;;;;;;20.60;16.65;;;;;;;6.56;100.00;98062.13;10401573;28;20141;-59
2022/03/29 02:18:43;;;;;;;18.88;16.02;;;;;;;6.50;100.00;98062.72;10402640;28;20120;-61
2022/03/29 02:23:47;;;;;;;19.80;16.05;;;;;;;6.45;100.00;98065.81;10402111;28;20124;-59
2022/03/29 02:28:50;;;;;;;22.20;17.73;;;;;;;6.44;100.00;98056.94;10400329;28;20047;-56
2022/03/29 02:33:53;;;;;;;22.25;17.05;;;;;;;6.41;100.00;98053.72;10401711;28;20076;-56
2022/03/29 02:38:58;;;;;;;21.50;17.65;;;;;;;6.39;100.00;98051.19;10402196;28;20049;-56
2022/03/29 02:44:01;;;;;;;21.05;17.48;;;;;;;6.37;100.00;98047.81;10401224;28;20401;-59
2022/03/29 02:49:04;;;;;;;19.65;16.35;;;;;;;6.38;100.00;98049.50;10382861;28;20604;-57
2022/03/29 02:54:08;;;;;;;21.10;17.13;;;;;;;6.37;100.00;98046.94;10400193;28;20125;-60
2022/03/29 02:59:11;;;;;;;19.73;16.20;;;;;;;6.35;100.00;98047.09;10379013;28;20608;-60
2022/03/29 03:04:15;;;;;;;20.73;16.80;;;;;;;6.29;100.00;98040.50;10381558;28;20137;-59
2022/03/29 03:09:19;;;;;;;21.17;17.50;;;;;;;6.19;100.00;98033.47;10401395;28;20052;-59
2022/03/29 03:14:22;;;;;;;19.70;16.50;;;;;;;6.15;100.00;98032.91;10397666;28;20111;-61
2022/03/29 03:19:25;;;;;;;21.15;16.58;;;;;;;6.09;100.00;98028.97;10398511;28;20457;-56
2022/03/29 03:24:29;;;;;;;19.95;16.52;;;;;;;6.04;100.00;98017.88;10399775;28;20042;-55
2022/03/29 03:29:33;;;;;;;21.58;16.48;;;;;;;6.04;100.00;98017.00;10398147;28;20133;-60
2022/03/29 03:34:36;;;;;;;20.77;17.08;;;;;;;6.00;100.00;98025.31;10398785;28;20520;-57
2022/03/29 03:39:41;;;;;;;21.95;17.05;;;;;;;5.97;100.00;98016.72;10397660;28;20045;-61
2022/03/29 03:44:44;;;;;;;19.38;16.40;;;;;;;5.93;100.00;98016.16;10399479;28;20535;-59
2022/03/29 03:49:48;;;;;;;22.27;17.83;;;;;;;5.90;100.00;98002.22;10399981;28;20049;-59
2022/03/29 03:54:54;;;;;;;23.30;17.98;;;;;;;5.80;100.00;98000.41;10398157;28;20072;-55
2022/03/29 03:59:57;;;;;;;22.13;18.55;;;;;;;5.68;100.00;97996.19;10399782;28;20045;-60
2022/03/29 04:05:00;;;;;;;24.27;19.67;;;;;;;5.68;100.00;97993.53;10396088;28;20128;-58
2022/03/29 04:10:06;;;;;;;25.00;19.42;;;;;;;5.56;100.00;98003.50;10399968;28;20052;-58
2022/03/29 04:15:10;;;;;;;27.13;22.05;;;;;;;5.49;100.00;97995.19;10398058;28;20103;-58
2022/03/29 04:20:13;;;;;;;26.63;21.38;;;;;;;5.49;100.00;97989.84;10399376;28;20125;-59
2022/03/29 04:25:18;;;;;;;28.40;23.08;;;;;;;5.47;100.00;97974.94;10397793;28;20046;-58
2022/03/29 04:30:21;;;;;;;31.58;23.27;;;;;;;5.34;100.00;97980.56;10398239;28;20073;-60
2022/03/29 04:35:25;;;;;;;30.52;24.48;;;;;;;5.30;100.00;97979.16;10395257;28;20112;-56
2022/03/29 04:40:29;;;;;;;30.45;23.25;;;;;;;5.29;100.00;97977.47;10397485;28;20469;-54
2022/03/29 04:45:32;;;;;;;31.67;25.73;;;;;;;5.19;100.00;97967.59;10396623;28;20047;-58
2022/03/29 04:50:36;;;;;;;35.53;26.38;;;;;;;5.16;100.00;97977.72;10399013;28;20096;-55
2022/03/29 04:55:40;;;;;;;33.17;26.30;;;;;;;5.13;100.00;97978.81;10403489;28;20113;-57
2022/03/29 05:00:44;;;;;;;36.50;27.67;;;;;;;5.10;100.00;97976.47;10405498;28;20516;-60
2022/03/29 05:05:47;;;;;;;35.67;28.67;;;;;;;5.09;100.00;97969.44;10404442;28;20048;-58
2022/03/29 05:10:51;;;;;;;34.75;27.90;;;;;;;5.09;100.00;97974.75;10402861;28;20060;-57
2022/03/29 05:15:55;;;;;;;38.67;29.48;;;;;;;5.12;100.00;97971.78;10402992;28;20136;-60
2022/03/29 05:20:58;;;;;;;34.40;27.45;;;;;;;5.17;100.00;97979.41;10405521;28;20052;-60
2022/03/29 05:26:03;;;;;;;32.90;26.50;;;;;;;5.20;100.00;97977.31;10403304;28;20037;-61
2022/03/29 05:31:06;;;;;;;38.08;28.92;;;;;;;5.20;100.00;97984.47;10402419;28;20155;-57
2022/03/29 05:36:09;;;;;;;33.22;28.17;;;;;;;5.24;100.00;97984.03;10403091;28;20441;-59
2022/03/29 05:41:15;;;;;;;32.13;25.95;;;;;;;5.25;100.00;97995.59;10401034;28;20572;-58
2022/03/29 05:51:39;;;;;;;30.60;25.65;;;;;;;5.36;100.00;97995.47;10401937;28;20052;-59
2022/03/29 05:56:43;;;;;;;31.55;25.63;;;;;;;5.43;100.00;98000.25;10384109;28;20553;-58
2022/03/29 06:01:46;;;;;;;32.63;26.13;;;;;;;5.49;100.00;98007.72;10402549;28;20120;-57
2022/03/29 06:06:49;;;;;;;32.95;25.90;;;;;;;5.57;100.00;97993.66;10402747;28;20099;-60
2022/03/29 06:11:54;;;;;;;30.02;25.67;;;;;;;5.65;100.00;98004.47;10379984;28;20502;-60
2022/03/29 06:17:04;;;;;;;30.80;25.58;;;;;;;5.75;100.00;97999.97;10403208;28;20054;-58
2022/03/29 06:22:07;;;;;;;32.63;26.00;;;;;;;5.83;100.00;97997.44;10400831;28;20115;-63
2022/03/29 06:27:12;;;;;;;28.75;24.92;;;;;;;5.88;100.00;97996.19;10400153;28;20052;-61
2022/03/29 06:32:15;;;;;;;27.60;23.95;;;;;;;5.91;100.00;97995.91;10401047;28;20520;-61
2022/03/29 06:37:18;;;;;;;28.05;24.13;;;;;;;5.89;100.00;97989.84;10401353;28;20108;-61
2022/03/29 06:42:22;;;;;;;30.70;24.00;;;;;;;5.85;100.00;98000.81;10399847;28;20141;-60
2022/03/29 06:47:25;;;;;;;28.73;25.55;;;;;;;5.83;100.00;98008.13;10399950;28;20920;-64
2022/03/29 06:52:34;;;;;;;32.03;27.30;;;;;;;5.82;100.00;98017.13;10400535;28;20049;-66
2022/03/29 06:57:39;;;;;;;32.67;26.60;;;;;;;5.78;100.00;97998.84;10382044;28;20180;-61
2022/03/29 07:02:48;;;;;;;32.60;26.85;;;;;;;5.78;100.00;98012.22;10398918;28;20049;-63
2022/03/29 07:07:51;;;;;;;33.47;27.75;;;;;;;5.80;100.00;97996.88;10401122;28;20115;-66
2022/03/29 07:12:58;;;;;;;33.47;27.95;;;;;;;5.99;100.00;98001.38;10399752;28;20061;-63
2022/03/29 07:18:01;;;;;;;32.05;25.85;;;;;;;6.11;100.00;98010.97;10438649;28;20136;-58
2022/03/29 07:23:06;;;;;;;28.88;24.77;;;;;;;6.21;100.00;98013.63;10440379;28;20600;-66
2022/03/29 07:28:11;;;;;;;26.33;22.55;;;;;;;6.29;100.00;98002.22;10441107;28;20043;-66
2022/03/29 07:33:17;;;;;;;25.02;22.20;;;;;;;6.42;100.00;98002.72;10422179;28;20051;-66
2022/03/29 07:38:20;;;;;;;27.13;22.35;;;;;;;6.53;100.00;97993.69;10442266;28;20120;-64
2022/03/29 07:43:24;;;;;;;25.23;22.50;;;;;;;6.65;100.00;97986.28;10423369;28;20049;-65
2022/03/29 07:48:27;;;;;;;25.08;21.77;;;;;;;6.72;100.00;97986.56;10438821;28;20124;-67
2022/03/29 07:53:51;;;;;;;24.30;21.63;;;;;;;6.91;100.00;97980.25;10439844;28;20045;-66
2022/03/29 07:59:21;;;;;;;23.95;20.80;;;;;;;7.06;100.00;97981.47;10440487;28;20481;-64
2022/03/29 08:04:24;;;;;;;28.80;21.15;;;;;;;7.18;100.00;97975.88;10440171;28;20438;-65
2022/03/29 08:09:28;;;;;;;22.40;20.08;;;;;;;7.36;100.00;97978.59;10439886;28;20474;-65
2022/03/29 08:14:38;;;;;;;21.95;19.63;;;;;;;7.51;100.00;97971.72;10439679;28;20124;-67
2022/03/29 08:19:41;;;;;;;22.63;19.30;;;;;;;7.59;100.00;97962.88;10440472;28;20111;-66
2022/03/29 08:24:44;;;;;;;23.25;18.83;;;;;;;7.65;100.00;97959.59;10419267;28;20144;-65
2022/03/29 08:29:49;;;;;;;23.48;19.50;;;;;;;7.75;100.00;97958.69;10449105;28;20147;-65
2022/03/29 08:34:52;;;;;;;22.38;18.73;;;;;;;7.78;100.00;97961.06;10430110;28;20480;-64
2022/03/29 08:39:55;;;;;;;20.05;17.85;;;;;;;7.96;100.00;97956.50;10448072;28;20156;-65
2022/03/29 08:45:00;;;;;;;21.58;18.77;;;;;;;8.12;100.00;97963.00;10428872;28;20144;-65
2022/03/29 08:50:07;;;;;;;21.48;18.75;;;;;;;8.25;100.00;97959.88;10448426;28;20043;-63
2022/03/29 08:55:10;;;;;;;25.00;17.98;;;;;;;8.40;100.00;97952.09;10444154;28;20036;-66
2022/03/29 09:00:17;;;;;;;18.70;16.70;;;;;;;8.50;100.00;97939.44;10447082;28;20508;-61
2022/03/29 09:05:26;;;;;;;18.70;16.75;;;;;;;8.54;100.00;97935.41;10446636;28;20049;-58
2022/03/29 09:10:40;;;;;;;17.90;16.00;;;;;;;8.65;100.00;97942.34;10447588;28;20068;-62
2022/03/29 09:15:45;;;;;;;20.23;16.15;;;;;;;8.76;100.00;97934.00;10446131;28;20134;-59
2022/03/29 09:21:07;;;;;;;18.63;16.10;;;;;;;8.88;100.00;97937.22;10447540;28;20048;-58
2022/03/29 09:26:26;;;;;;;17.73;15.50;;;;;;;8.90;100.00;97929.84;10443362;28;20043;-62
2022/03/29 09:31:30;;;;;;;17.88;15.38;;;;;;;9.15;100.00;97939.84;10445494;28;20531;-60
2022/03/29 09:36:41;;;;;;;19.92;15.18;;;;;;;9.28;100.00;97931.28;10445511;28;20040;-65
2022/03/29 09:41:44;;;;;;;16.85;15.05;;;;;;;9.20;100.00;97927.59;10446335;28;20460;-66
2022/03/29 09:47:07;;;;;;;16.05;14.05;;;;;;;9.37;100.00;97917.72;10428103;28;20127;-63
2022/03/29 09:52:14;;;;;;;16.08;14.45;;;;;;;9.67;100.00;97914.53;10445372;28;20060;-62
2022/03/29 09:57:17;;;;;;;17.05;14.88;;;;;;;9.49;100.00;97920.91;10429348;28;20072;-63
2022/03/29 10:02:22;;;;;;;16.98;15.23;;;;;;;9.42;100.00;97906.47;10426279;28;20134;-67
2022/03/29 10:07:25;;;;;;;19.08;15.30;;;;;;;9.34;100.00;97903.78;10446118;28;20041;-63
2022/03/29 10:12:28;;;;;;;17.52;14.95;;;;;;;9.42;100.00;97895.69;10445966;28;20131;-65
2022/03/29 10:17:33;;;;;;;17.27;14.55;;;;;;;9.48;100.00;97891.50;10451694;28;20053;-66
2022/03/29 10:22:37;;;;;;;15.88;14.15;;;;;;;9.63;100.00;97886.28;10447252;28;20076;-63
2022/03/29 10:27:40;;;;;;;15.75;14.07;;;;;;;9.74;100.00;97877.88;10447462;28;20045;-65
2022/03/29 10:32:45;;;;;;;16.20;14.50;;;;;;;9.91;100.00;97877.88;10443977;28;20071;-67
2022/03/29 10:37:59;;;;;;;16.35;14.60;;;;;;;10.04;100.00;97878.19;10446311;28;20424;-67
2022/03/29 10:43:28;;;;;;;14.88;13.23;;;;;;;10.13;100.00;97860.16;10444725;28;20862;-64
2022/03/29 10:48:32;;;;;;;14.80;13.18;;;;;;;10.34;100.00;97846.13;10445520;28;20041;-62
2022/03/29 10:53:40;;;;;;;16.67;13.27;;;;;;;10.55;100.00;97842.03;10443904;28;20060;-62
2022/03/29 10:59:10;;;;;;;14.57;13.07;;;;;;;10.63;100.00;97837.44;10445501;28;20037;-65
2022/03/29 11:04:21;;;;;;;15.68;12.90;;;;;;;10.81;100.00;97838.19;10440230;28;20055;-63
2022/03/29 11:09:25;;;;;;;14.95;13.15;;;;;;;10.89;100.00;97832.75;10441746;28;20041;-65
2022/03/29 11:14:37;;;;;;;13.95;12.38;;;;;;;10.94;100.00;97822.28;10438414;28;20057;-67
2022/03/29 11:19:44;;;;;;;15.38;12.93;;;;;;;11.10;100.00;97824.88;10443492;28;20041;-61
2022/03/29 11:24:49;;;;;;;14.65;13.05;;;;;;;11.15;100.00;97810.84;10443212;28;20068;-65
2022/03/29 11:29:52;;;;;;;15.45;13.13;;;;;;;11.36;100.00;97807.47;10442335;28;20132;-61
2022/03/29 11:34:58;;;;;;;15.48;12.90;;;;;;;11.55;100.00;97794.50;10438999;28;20052;-63
2022/03/29 11:40:05;;;;;;;14.07;12.52;;;;;;;11.90;100.00;97786.72;10442659;28;20041;-63
2022/03/29 11:45:08;;;;;;;15.80;13.10;;;;;;;12.17;100.00;97776.34;10423361;28;20144;-65
2022/03/29 11:50:14;;;;;;;14.68;12.60;;;;;;;12.35;100.00;97772.41;10440607;28;20049;-64
2022/03/29 11:55:17;;;;;;;13.50;12.10;;;;;;;12.32;100.00;97762.81;10440774;28;20132;-65
2022/03/29 12:00:23;;;;;;;12.85;10.93;;;;;;;12.29;100.00;97758.59;10422820;28;20137;-66
2022/03/29 12:05:29;;;;;;;9.88;8.88;;;;;;;12.38;100.00;97745.84;10439976;28;20065;-65
2022/03/29 12:10:34;;;;;;;9.73;8.40;;;;;;;12.40;100.00;97733.00;10438293;28;20413;-63
2022/03/29 12:15:38;;;;;;;9.38;8.18;;;;;;;12.56;100.00;97721.09;10439483;28;20056;-62
2022/03/29 12:20:44;;;;;;;9.50;8.48;;;;;;;12.77;100.00;97705.94;10439506;28;20130;-61
2022/03/29 12:25:48;;;;;;;10.88;8.45;;;;;;;12.88;100.00;97697.28;10436048;28;20068;-61
2022/03/29 12:30:54;;;;;;;9.27;8.38;;;;;;;12.80;99.09;97694.72;10440520;28;20069;-64
2022/03/29 12:36:07;;;;;;;9.82;8.57;;;;;;;13.06;94.62;97690.59;10439861;28;20079;-56
2022/03/29 12:41:12;;;;;;;9.13;8.23;;;;;;;13.40;87.39;97684.47;10435839;28;20136;-60
2022/03/29 12:46:16;;;;;;;10.32;7.70;;;;;;;13.22;85.71;97676.81;10439019;28;20626;-62
2022/03/29 12:51:28;;;;;;;6.10;5.30;;;;;;;13.21;64.43;97664.31;10439423;28;20497;-63
2022/03/29 12:56:33;;;;;;;5.47;3.42;;;;;;;13.20;58.04;97659.94;10439082;28;20124;-63
2022/03/29 13:01:37;;;;;;;4.45;3.28;;;;;;;12.99;54.27;97659.97;10439943;28;20476;-63
2022/03/29 13:06:43;;;;;;;5.88;4.68;;;;;;;13.07;57.56;97652.53;10438629;28;20511;-62
2022/03/29 13:11:47;;;;;;;7.57;5.30;;;;;;;13.30;64.85;97651.44;10436277;28;20072;-64
2022/03/29 13:16:51;;;;;;;7.13;5.80;;;;;;;13.29;63.81;97643.53;10447236;28;20060;-57
2022/03/29 13:22:01;;;;;;;8.18;7.03;;;;;;;13.52;71.19;97637.91;10447150;28;20501;-63
2022/03/29 13:27:10;;;;;;;7.88;6.72;;;;;;;13.54;73.84;97631.25;10446252;28;20568;-64
2022/03/29 13:32:15;;;;;;;8.50;7.45;;;;;;;13.51;70.93;97625.41;10445212;28;20056;-63
2022/03/29 13:37:20;;;;;;;7.45;6.60;;;;;;;13.40;67.33;97618.66;10446866;28;20037;-61
2022/03/29 13:42:23;;;;;;;7.32;6.55;;;;;;;13.30;65.71;97610.88;10449524;28;20556;-61
2022/03/29 13:47:26;;;;;;;8.50;6.85;;;;;;;13.53;67.92;97610.63;10444164;28;20041;-63
2022/03/29 13:52:31;;;;;;;6.85;6.07;;;;;;;13.34;66.06;97597.81;10446014;28;20140;-65
2022/03/29 13:57:34;;;;;;;6.75;5.25;;;;;;;12.94;58.17;97604.63;10447930;28;20045;-64
2022/03/29 14:02:39;;;;;;;6.63;5.90;;;;;;;13.17;59.81;97587.28;10444998;28;20541;-63
2022/03/29 14:07:46;;;;;;;8.18;6.00;;;;;;;13.08;58.96;97580.38;10446126;28;20072;-61
2022/03/29 14:12:53;;;;;;;9.48;6.97;;;;;;;13.10;62.30;97572.91;10445281;28;20563;-62
2022/03/29 14:17:59;;;;;;;8.98;7.53;;;;;;;13.28;69.02;97571.53;10400998;28;20050;-63
2022/03/29 14:23:05;;;;;;;8.35;7.40;;;;;;;13.33;63.84;97563.69;10404079;28;20076;-63
2022/03/29 14:28:11;;;;;;;8.88;7.68;;;;;;;13.60;65.44;97555.69;10402562;28;20037;-63
2022/03/29 14:33:16;;;;;;;8.98;8.07;;;;;;;13.52;68.58;97549.44;10403642;28;20143;-61
2022/03/29 14:38:22;;;;;;;9.40;6.90;;;;;;;13.78;61.91;97544.31;10404580;28;20030;-60
2022/03/29 14:43:36;;;;;;;7.88;7.05;;;;;;;13.62;62.85;97542.78;10405893;28;20041;-63
2022/03/29 14:48:40;;;;;;;9.60;7.50;;;;;;;13.50;65.02;97537.97;10402930;28;20133;-62
2022/03/29 14:53:45;;;;;;;9.70;7.78;;;;;;;13.39;65.38;97538.50;10405145;28;20049;-63
2022/03/29 14:58:48;;;;;;;9.07;7.47;;;;;;;13.78;65.57;97526.19;10405064;28;20053;-64
2022/03/29 15:03:53;;;;;;;9.88;7.63;;;;;;;13.51;64.96;97509.88;10402412;28;20137;-64
2022/03/29 15:08:58;;;;;;;9.63;7.57;;;;;;;13.74;65.79;97500.56;10405665;28;20045;-62
2022/03/29 15:14:01;;;;;;;8.95;8.05;;;;;;;13.59;67.87;97502.59;10404422;28;20077;-63
2022/03/29 15:19:04;;;;;;;8.40;7.47;;;;;;;13.79;65.63;97500.81;10443469;28;20083;-63
2022/03/29 15:24:09;;;;;;;10.27;7.72;;;;;;;13.63;66.99;97487.63;10443591;28;20494;-63
2022/03/29 15:29:13;;;;;;;8.27;7.28;;;;;;;13.66;67.52;97492.66;10445664;28;20400;-62
2022/03/29 15:34:32;;;;;;;8.85;7.40;;;;;;;13.54;65.32;97490.53;10425127;28;20139;-65
2022/03/29 15:39:38;;;;;;;8.93;6.50;;;;;;;13.64;63.94;97481.19;10439349;28;20505;-64
2022/03/29 15:44:47;;;;;;;7.97;6.28;;;;;;;13.45;62.95;97490.91;10442831;28;20037;-63
2022/03/29 15:49:54;;;;;;;8.90;6.63;;;;;;;13.40;62.74;97483.41;10426183;28;20117;-65
2022/03/29 15:54:58;;;;;;;10.65;6.32;;;;;;;13.35;65.62;97475.88;10441190;28;20728;-66
2022/03/29 16:00:01;;;;;;;8.73;6.47;;;;;;;13.29;62.81;97470.44;10444265;28;20060;-63
2022/03/29 16:05:05;;;;;;;7.95;6.75;;;;;;;13.17;65.73;97471.00;10440503;28;20064;-66
2022/03/29 16:10:10;;;;;;;9.95;7.03;;;;;;;13.22;67.40;97467.69;10442011;28;20132;-62
2022/03/29 16:15:13;;;;;;;9.82;6.43;;;;;;;13.15;67.61;97456.03;10440984;28;20088;-65
2022/03/29 16:20:18;;;;;;;8.57;7.05;;;;;;;13.25;68.87;97454.59;10422621;28;20048;-65
2022/03/29 16:25:22;;;;;;;7.65;6.85;;;;;;;13.13;74.72;97445.41;10408589;28;20120;-66
2022/03/29 16:30:27;;;;;;;8.27;6.88;;;;;;;13.13;76.57;97439.97;10397481;28;20049;-62
2022/03/29 16:35:31;;;;;;;10.38;6.43;;;;;;;13.05;72.55;97437.47;10416871;28;20144;-65
2022/03/29 16:40:36;;;;;;;9.35;6.40;;;;;;;13.02;73.28;97438.72;10421244;28;20080;-67
2022/03/29 16:45:40;;;;;;;10.27;6.60;;;;;;;13.05;76.61;97434.75;10405002;28;20559;-62
2022/03/29 16:50:43;;;;;;;11.40;6.30;;;;;;;12.94;72.73;97428.03;10425531;28;20533;-68
2022/03/29 16:55:48;;;;;;;7.93;6.32;;;;;;;12.81;76.01;97434.22;10393807;28;20053;-63
2022/03/29 17:00:51;;;;;;;6.95;6.05;;;;;;;12.72;74.75;97422.75;10423917;28;20557;-67
2022/03/29 17:05:55;;;;;;;7.70;6.38;;;;;;;12.69;75.22;97428.56;10425195;28;20046;-66
2022/03/29 17:11:00;;;;;;;7.45;6.18;;;;;;;12.60;75.00;97424.34;10432657;28;20045;-64
2022/03/29 17:16:03;;;;;;;7.80;6.45;;;;;;;12.54;75.66;97423.25;10439825;28;20076;-64
2022/03/29 17:21:06;;;;;;;8.05;6.63;;;;;;;12.49;74.22;97423.03;10434601;23;20065;-60
2022/03/29 17:26:10;;;;;;;10.75;6.13;;;;;;;12.37;77.86;97421.94;10424084;28;20504;-59
2022/03/29 17:31:14;;;;;;;8.73;6.45;;;;;;;12.12;77.65;97419.66;10423284;28;20121;-61
2022/03/29 17:36:18;;;;;;;9.77;6.63;;;;;;;11.88;77.37;97424.44;10428368;28;20057;-61
2022/03/29 17:41:23;;;;;;;7.72;6.65;;;;;;;11.75;78.40;97421.59;10429254;28;20069;-59
2022/03/29 17:46:26;;;;;;;12.00;6.63;;;;;;;11.68;81.49;97425.09;10429571;28;20497;-60
2022/03/29 17:51:30;;;;;;;9.48;8.40;;;;;;;11.19;92.34;97437.41;10428053;28;20401;-60
2022/03/29 17:56:35;;;;;;;12.63;10.18;;;;;;;10.57;100.00;97439.56;10436802;28;20114;-59
2022/03/29 18:01:39;;;;;;;14.63;11.55;;;;;;;10.26;100.00;97445.88;10426464;28;20121;-59
2022/03/29 18:06:42;;;;;;;14.18;12.68;;;;;;;9.79;100.00;97442.44;10426489;28;20053;-60
2022/03/29 18:11:48;;;;;;;18.38;14.23;;;;;;;9.53;100.00;97456.22;10432876;28;20041;-59
2022/03/29 18:16:51;;;;;;;16.73;14.27;;;;;;;9.37;100.00;97451.81;10427299;28;20119;-60
2022/03/29 18:21:54;;;;;;;17.42;15.40;;;;;;;9.11;100.00;97458.34;10423069;28;20050;-61
2022/03/29 18:26:59;;;;;;;19.45;17.45;;;;;;;9.00;100.00;97456.03;10438187;28;20059;-59
2022/03/29 18:32:09;;;;;;;20.30;17.58;;;;;;;8.87;100.00;97457.47;10430649;28;20052;-59
2022/03/29 18:37:13;;;;;;;20.55;17.10;;;;;;;8.73;100.00;97455.50;10416734;28;20132;-61
2022/03/29 18:42:18;;;;;;;19.70;17.70;;;;;;;8.62;100.00;97454.84;10423009;28;20060;-63
2022/03/29 18:47:21;;;;;;;19.52;17.15;;;;;;;8.52;100.00;97458.72;10430826;28;20128;-61
2022/03/29 18:52:24;;;;;;;23.05;16.90;;;;;;;8.46;100.00;97449.50;10434149;28;20042;-60
2022/03/29 18:57:29;;;;;;;19.65;17.42;;;;;;;8.39;100.00;97465.44;10429285;28;20123;-57
2022/03/29 19:02:32;;;;;;;20.25;16.58;;;;;;;8.32;100.00;97465.28;10419607;28;20071;-59
2022/03/29 19:07:37;;;;;;;18.20;16.27;;;;;;;8.18;100.00;97479.38;10418998;28;20068;-63
2022/03/29 19:12:43;;;;;;;19.23;15.52;;;;;;;8.10;100.00;97471.34;10404883;28;20087;-60
2022/03/29 19:17:46;;;;;;;17.17;14.63;;;;;;;8.06;100.00;97470.84;10407919;28;20402;-59
2022/03/29 19:22:49;;;;;;;16.85;14.85;;;;;;;7.99;100.00;97478.75;10422925;28;20129;-62
2022/03/29 19:27:56;;;;;;;17.83;14.38;;;;;;;7.97;100.00;97482.59;10425323;28;20048;-61
2022/03/29 19:33:04;;;;;;;17.98;14.32;;;;;;;7.92;100.00;97471.53;10428032;28;20045;-59
2022/03/29 19:38:08;;;;;;;16.48;14.77;;;;;;;7.81;100.00;97478.09;10405008;28;20088;-57
2022/03/29 19:43:47;;;;;;;17.70;15.80;;;;;;;7.74;100.00;97477.06;10423296;28;20084;-58
2022/03/29 19:48:50;;;;;;;18.63;16.17;;;;;;;7.65;100.00;97473.53;10422862;28;20136;-58
2022/03/29 19:53:57;;;;;;;20.98;16.90;;;;;;;7.62;100.00;97484.59;10427589;28;20056;-59
2022/03/29 19:59:01;;;;;;;18.98;16.92;;;;;;;7.53;100.00;97475.69;10426603;28;20075;-59
2022/03/29 20:04:04;;;;;;;19.95;17.77;;;;;;;7.53;100.00;97473.84;10419264;28;20106;-58
2022/03/29 20:09:27;;;;;;;18.98;16.98;;;;;;;7.46;100.00;97483.56;10425607;28;20510;-59
2022/03/29 20:14:32;;;;;;;19.35;17.27;;;;;;;7.48;100.00;97478.88;10423214;28;20215;-56
2022/03/29 20:19:36;;;;;;;17.92;16.02;;;;;;;7.45;100.00;97475.69;10420899;28;20057;-60
2022/03/29 20:24:40;;;;;;;19.58;16.80;;;;;;;7.42;100.00;97471.47;10426408;28;20068;-56
2022/03/29 20:29:45;;;;;;;17.67;15.88;;;;;;;7.33;100.00;97467.97;10413773;28;20607;-55
2022/03/29 20:34:49;;;;;;;18.50;16.67;;;;;;;7.33;100.00;97464.44;10428298;28;20050;-59
2022/03/29 20:39:52;;;;;;;18.02;16.23;;;;;;;7.24;100.00;97474.28;10430018;28;20128;-59
2022/03/29 20:44:56;;;;;;;19.27;17.27;;;;;;;7.09;100.00;97464.22;10426847;28;20537;-57
2022/03/29 20:50:00;;;;;;;18.67;16.83;;;;;;;7.00;100.00;97465.19;10432938;28;20037;-58
2022/03/29 20:55:04;;;;;;;19.02;17.02;;;;;;;6.96;100.00;97466.53;10431337;28;20526;-58
2022/03/29 21:00:11;;;;;;;18.83;16.83;;;;;;;6.89;100.00;97454.75;10434035;28;20072;-59
2022/03/29 21:05:14;;;;;;;19.48;17.48;;;;;;;6.82;100.00;97456.41;10433492;28;21126;-53
2022/03/29 21:10:18;;;;;;;21.02;17.67;;;;;;;6.77;100.00;97455.06;10432991;28;20079;-54
2022/03/29 21:15:23;;;;;;;18.13;16.23;;;;;;;6.74;100.00;97455.41;10426134;28;20463;-56
2022/03/29 21:20:28;;;;;;;18.30;16.35;;;;;;;6.63;100.00;97453.00;10434195;28;20051;-58
2022/03/29 21:25:32;;;;;;;18.73;15.90;;;;;;;6.56;100.00;97450.13;10429659;28;20049;-58
2022/03/29 21:30:37;;;;;;;19.45;16.42;;;;;;;6.56;100.00;97452.81;10417991;28;20069;-56
2022/03/29 21:35:40;;;;;;;18.80;15.88;;;;;;;6.53;100.00;97447.78;10429351;28;20067;-58
2022/03/29 21:40:45;;;;;;;17.30;15.60;;;;;;;6.51;100.00;97440.91;10431206;28;20048;-58
2022/03/29 21:45:51;;;;;;;18.15;16.17;;;;;;;6.46;100.00;97436.88;10427055;28;20061;-58
2022/03/29 21:50:54;;;;;;;17.98;16.08;;;;;;;6.44;100.00;97430.81;10429531;28;20060;-55
2022/03/29 21:56:16;;;;;;;17.27;15.48;;;;;;;6.40;100.00;97432.16;10431860;28;20096;-58
2022/03/29 22:01:39;;;;;;;18.70;16.10;;;;;;;6.30;100.00;97429.59;10432226;28;20128;-57
2022/03/29 22:07:02;;;;;;;17.85;16.02;;;;;;;6.28;100.00;97434.25;10430772;28;20061;-54
2022/03/29 22:12:06;;;;;;;17.27;15.55;;;;;;;6.26;100.00;97430.06;10426298;28;20087;-56
2022/03/29 22:17:10;;;;;;;18.27;15.65;;;;;;;6.26;100.00;97436.25;10428817;28;20057;-54
2022/03/29 22:22:13;;;;;;;19.48;15.48;;;;;;;6.20;100.00;97433.38;10422176;28;20107;-56
2022/03/29 22:27:17;;;;;;;18.23;16.33;;;;;;;6.10;100.00;97431.63;10424551;28;20140;-59
2022/03/29 22:32:21;;;;;;;20.25;17.10;;;;;;;6.03;100.00;97430.59;10427351;28;20077;-60
2022/03/29 22:37:25;;;;;;;19.38;17.17;;;;;;;5.95;100.00;97428.69;10425228;28;20053;-56
2022/03/29 22:42:28;;;;;;;21.05;17.55;;;;;;;5.88;100.00;97437.47;10411862;28;20046;-58
2022/03/29 22:47:33;;;;;;;18.58;16.67;;;;;;;5.83;100.00;97429.94;10427148;28;20056;-57
2022/03/29 22:52:36;;;;;;;18.90;16.95;;;;;;;5.75;100.00;97430.69;10422990;28;20037;-58
2022/03/29 22:57:41;;;;;;;18.80;16.77;;;;;;;5.69;100.00;97426.81;10423510;28;21347;-55
2022/03/29 23:02:47;;;;;;;18.60;16.73;;;;;;;5.67;100.00;97426.13;10427707;28;20041;-54
2022/03/29 23:07:51;;;;;;;18.80;16.80;;;;;;;5.65;100.00;97422.75;10428269;28;20069;-55
2022/03/29 23:12:55;;;;;;;19.85;17.75;;;;;;;5.62;100.00;97419.56;10427162;28;20571;-54
2022/03/29 23:18:02;;;;;;;18.58;16.67;;;;;;;5.58;100.00;97415.53;10433743;23;20057;31